sensor_id;sensor_type;location;lat;lon;timestamp;P1;durP1;ratioP1;P2;durP2;ratioP2
80705;SDS011;70229;48.010;7.852;2024-03-06T00:12:22;8.98;;;3.55;;
80705;SDS011;70229;48.010;7.852;2024-03-06T00:34:54;3.22;;;1.40;;
80705;SDS011;70229;48.010;7.852;2024-03-06T00:37:20;5.30;;;2.47;;
80705;SDS011;70229;48.010;7.852;2024-03-06T00:39:45;6.07;;;4.05;;
80705;SDS011;70229;48.010;7.852;2024-03-06T00:42:11;4.20;;;2.00;;
80705;SDS011;70229;48.010;7.852;2024-03-06T00:44:38;5.57;;;2.40;;
80705;SDS011;70229;48.010;7.852;2024-03-06T00:47:04;4.45;;;2.25;;
80705;SDS011;70229;48.010;7.852;2024-03-06T00:49:29;5.70;;;1.95;;
80705;SDS011;70229;48.010;7.852;2024-03-06T00:51:56;7.38;;;3.35;;
80705;SDS011;70229;48.010;7.852;2024-03-06T00:54:21;6.28;;;3.63;;
80705;SDS011;70229;48.010;7.852;2024-03-06T00:56:47;5.70;;;3.22;;
80705;SDS011;70229;48.010;7.852;2024-03-06T00:59:12;5.07;;;2.70;;
80705;SDS011;70229;48.010;7.852;2024-03-06T01:01:38;4.43;;;2.60;;
80705;SDS011;70229;48.010;7.852;2024-03-06T01:04:03;5.43;;;3.10;;
80705;SDS011;70229;48.010;7.852;2024-03-06T01:06:29;4.65;;;2.60;;
80705;SDS011;70229;48.010;7.852;2024-03-06T01:08:55;4.97;;;2.13;;
80705;SDS011;70229;48.010;7.852;2024-03-06T01:11:22;4.13;;;2.17;;
80705;SDS011;70229;48.010;7.852;2024-03-06T01:13:47;4.13;;;1.58;;
80705;SDS011;70229;48.010;7.852;2024-03-06T01:16:13;4.05;;;1.92;;
80705;SDS011;70229;48.010;7.852;2024-03-06T01:18:38;5.25;;;1.80;;
80705;SDS011;70229;48.010;7.852;2024-03-06T01:21:04;3.45;;;1.42;;
80705;SDS011;70229;48.010;7.852;2024-03-06T01:23:29;4.50;;;2.20;;
80705;SDS011;70229;48.010;7.852;2024-03-06T01:25:55;4.78;;;1.60;;
80705;SDS011;70229;48.010;7.852;2024-03-06T01:28:20;4.47;;;1.95;;
80705;SDS011;70229;48.010;7.852;2024-03-06T01:30:46;3.88;;;2.30;;
80705;SDS011;70229;48.010;7.852;2024-03-06T01:33:12;5.63;;;2.08;;
80705;SDS011;70229;48.010;7.852;2024-03-06T01:35:37;3.10;;;1.75;;
80705;SDS011;70229;48.010;7.852;2024-03-06T01:38:03;2.85;;;1.50;;
80705;SDS011;70229;48.010;7.852;2024-03-06T01:40:28;4.10;;;1.95;;
80705;SDS011;70229;48.010;7.852;2024-03-06T01:42:54;4.32;;;1.48;;
80705;SDS011;70229;48.010;7.852;2024-03-06T01:45:20;3.33;;;1.45;;
80705;SDS011;70229;48.010;7.852;2024-03-06T01:47:46;3.78;;;1.88;;
80705;SDS011;70229;48.010;7.852;2024-03-06T01:50:11;4.03;;;1.98;;
80705;SDS011;70229;48.010;7.852;2024-03-06T01:52:38;4.72;;;1.83;;
80705;SDS011;70229;48.010;7.852;2024-03-06T01:55:06;4.72;;;2.20;;
80705;SDS011;70229;48.010;7.852;2024-03-06T01:57:33;6.60;;;2.00;;
80705;SDS011;70229;48.010;7.852;2024-03-06T01:59:59;4.55;;;1.70;;
80705;SDS011;70229;48.010;7.852;2024-03-06T02:02:26;3.72;;;1.48;;
80705;SDS011;70229;48.010;7.852;2024-03-06T02:04:53;2.20;;;1.25;;
80705;SDS011;70229;48.010;7.852;2024-03-06T02:07:19;3.78;;;1.85;;
80705;SDS011;70229;48.010;7.852;2024-03-06T02:09:46;4.38;;;1.98;;
80705;SDS011;70229;48.010;7.852;2024-03-06T02:12:11;2.33;;;1.42;;
80705;SDS011;70229;48.010;7.852;2024-03-06T02:14:38;4.07;;;2.13;;
80705;SDS011;70229;48.010;7.852;2024-03-06T02:17:04;4.30;;;1.70;;
80705;SDS011;70229;48.010;7.852;2024-03-06T02:19:42;4.03;;;2.15;;
80705;SDS011;70229;48.010;7.852;2024-03-06T02:22:09;4.35;;;2.10;;
80705;SDS011;70229;48.010;7.852;2024-03-06T02:24:35;4.40;;;1.98;;
80705;SDS011;70229;48.010;7.852;2024-03-06T02:27:02;3.80;;;1.90;;
80705;SDS011;70229;48.010;7.852;2024-03-06T02:29:30;6.15;;;2.50;;
80705;SDS011;70229;48.010;7.852;2024-03-06T02:31:56;8.23;;;2.75;;
80705;SDS011;70229;48.010;7.852;2024-03-06T02:34:23;5.30;;;2.45;;
80705;SDS011;70229;48.010;7.852;2024-03-06T02:36:49;3.55;;;2.15;;
80705;SDS011;70229;48.010;7.852;2024-03-06T02:39:16;3.97;;;2.10;;
80705;SDS011;70229;48.010;7.852;2024-03-06T02:41:42;3.67;;;2.03;;
80705;SDS011;70229;48.010;7.852;2024-03-06T02:44:08;4.38;;;2.20;;
80705;SDS011;70229;48.010;7.852;2024-03-06T02:46:34;3.80;;;2.13;;
80705;SDS011;70229;48.010;7.852;2024-03-06T02:49:00;5.72;;;2.22;;
80705;SDS011;70229;48.010;7.852;2024-03-06T02:51:25;3.97;;;1.95;;
80705;SDS011;70229;48.010;7.852;2024-03-06T02:53:51;7.15;;;3.35;;
80705;SDS011;70229;48.010;7.852;2024-03-06T02:56:18;5.50;;;2.72;;
80705;SDS011;70229;48.010;7.852;2024-03-06T02:58:44;4.95;;;2.28;;
80705;SDS011;70229;48.010;7.852;2024-03-06T03:01:10;5.07;;;2.10;;
80705;SDS011;70229;48.010;7.852;2024-03-06T03:03:36;4.18;;;2.25;;
80705;SDS011;70229;48.010;7.852;2024-03-06T03:06:02;7.32;;;3.45;;
80705;SDS011;70229;48.010;7.852;2024-03-06T03:08:27;3.78;;;2.20;;
80705;SDS011;70229;48.010;7.852;2024-03-06T03:10:53;4.20;;;2.72;;
80705;SDS011;70229;48.010;7.852;2024-03-06T03:13:20;5.22;;;3.45;;
80705;SDS011;70229;48.010;7.852;2024-03-06T03:15:46;6.03;;;2.15;;
80705;SDS011;70229;48.010;7.852;2024-03-06T03:18:13;4.40;;;2.70;;
80705;SDS011;70229;48.010;7.852;2024-03-06T03:20:38;5.72;;;3.25;;
80705;SDS011;70229;48.010;7.852;2024-03-06T03:23:04;7.82;;;3.67;;
80705;SDS011;70229;48.010;7.852;2024-03-06T03:25:31;3.58;;;2.28;;
80705;SDS011;70229;48.010;7.852;2024-03-06T03:27:58;5.57;;;3.13;;
80705;SDS011;70229;48.010;7.852;2024-03-06T03:30:24;4.50;;;2.85;;
80705;SDS011;70229;48.010;7.852;2024-03-06T03:32:49;4.63;;;2.97;;
80705;SDS011;70229;48.010;7.852;2024-03-06T03:35:15;4.30;;;2.88;;
80705;SDS011;70229;48.010;7.852;2024-03-06T03:37:42;6.22;;;2.80;;
80705;SDS011;70229;48.010;7.852;2024-03-06T03:40:08;4.60;;;3.20;;
80705;SDS011;70229;48.010;7.852;2024-03-06T03:42:36;5.95;;;2.97;;
80705;SDS011;70229;48.010;7.852;2024-03-06T03:45:03;4.85;;;2.83;;
80705;SDS011;70229;48.010;7.852;2024-03-06T03:47:29;5.57;;;3.03;;
80705;SDS011;70229;48.010;7.852;2024-03-06T03:49:55;5.60;;;3.20;;
80705;SDS011;70229;48.010;7.852;2024-03-06T03:52:21;5.40;;;3.25;;
80705;SDS011;70229;48.010;7.852;2024-03-06T03:54:47;6.90;;;3.15;;
80705;SDS011;70229;48.010;7.852;2024-03-06T03:57:13;6.78;;;3.92;;
80705;SDS011;70229;48.010;7.852;2024-03-06T03:59:39;4.60;;;2.80;;
80705;SDS011;70229;48.010;7.852;2024-03-06T04:02:06;4.90;;;2.90;;
80705;SDS011;70229;48.010;7.852;2024-03-06T04:04:31;5.40;;;3.30;;
80705;SDS011;70229;48.010;7.852;2024-03-06T04:06:58;5.25;;;2.80;;
80705;SDS011;70229;48.010;7.852;2024-03-06T04:09:26;4.65;;;3.05;;
80705;SDS011;70229;48.010;7.852;2024-03-06T04:11:54;5.40;;;3.20;;
80705;SDS011;70229;48.010;7.852;2024-03-06T04:14:20;4.68;;;2.97;;
80705;SDS011;70229;48.010;7.852;2024-03-06T04:16:47;5.25;;;3.05;;
80705;SDS011;70229;48.010;7.852;2024-03-06T04:19:13;5.15;;;2.92;;
80705;SDS011;70229;48.010;7.852;2024-03-06T04:21:42;7.07;;;3.05;;
80705;SDS011;70229;48.010;7.852;2024-03-06T04:24:08;5.03;;;3.08;;
80705;SDS011;70229;48.010;7.852;2024-03-06T04:26:34;7.38;;;3.38;;
80705;SDS011;70229;48.010;7.852;2024-03-06T04:29:00;5.65;;;3.55;;
80705;SDS011;70229;48.010;7.852;2024-03-06T04:31:25;8.57;;;3.85;;
80705;SDS011;70229;48.010;7.852;2024-03-06T04:33:51;12.75;;;9.60;;
80705;SDS011;70229;48.010;7.852;2024-03-06T04:36:16;8.60;;;5.10;;
80705;SDS011;70229;48.010;7.852;2024-03-06T04:38:42;8.75;;;3.95;;
80705;SDS011;70229;48.010;7.852;2024-03-06T04:41:08;6.63;;;4.57;;
80705;SDS011;70229;48.010;7.852;2024-03-06T04:43:35;44.95;;;30.05;;
80705;SDS011;70229;48.010;7.852;2024-03-06T04:46:01;8.95;;;4.38;;
80705;SDS011;70229;48.010;7.852;2024-03-06T04:48:27;8.85;;;4.97;;
80705;SDS011;70229;48.010;7.852;2024-03-06T04:50:52;8.07;;;4.28;;
80705;SDS011;70229;48.010;7.852;2024-03-06T04:53:18;7.78;;;4.22;;
80705;SDS011;70229;48.010;7.852;2024-03-06T04:55:45;6.22;;;3.08;;
80705;SDS011;70229;48.010;7.852;2024-03-06T04:58:11;4.15;;;1.70;;
80705;SDS011;70229;48.010;7.852;2024-03-06T05:00:37;6.63;;;3.22;;
80705;SDS011;70229;48.010;7.852;2024-03-06T05:03:02;4.90;;;2.97;;
80705;SDS011;70229;48.010;7.852;2024-03-06T05:05:28;10.43;;;5.25;;
80705;SDS011;70229;48.010;7.852;2024-03-06T05:07:54;10.60;;;4.72;;
80705;SDS011;70229;48.010;7.852;2024-03-06T05:10:20;4.88;;;2.17;;
80705;SDS011;70229;48.010;7.852;2024-03-06T05:12:46;4.57;;;2.10;;
80705;SDS011;70229;48.010;7.852;2024-03-06T05:15:13;5.03;;;2.83;;
80705;SDS011;70229;48.010;7.852;2024-03-06T05:17:39;4.88;;;2.38;;
80705;SDS011;70229;48.010;7.852;2024-03-06T05:20:04;6.45;;;2.90;;
80705;SDS011;70229;48.010;7.852;2024-03-06T05:22:31;9.20;;;5.22;;
80705;SDS011;70229;48.010;7.852;2024-03-06T05:24:56;15.65;;;11.45;;
80705;SDS011;70229;48.010;7.852;2024-03-06T05:27:23;8.02;;;4.47;;
80705;SDS011;70229;48.010;7.852;2024-03-06T05:29:49;8.30;;;3.20;;
80705;SDS011;70229;48.010;7.852;2024-03-06T05:32:15;7.50;;;2.22;;
80705;SDS011;70229;48.010;7.852;2024-03-06T05:34:40;2.83;;;1.25;;
80705;SDS011;70229;48.010;7.852;2024-03-06T05:37:06;4.30;;;1.95;;
80705;SDS011;70229;48.010;7.852;2024-03-06T05:39:32;26.38;;;18.50;;
80705;SDS011;70229;48.010;7.852;2024-03-06T05:42:02;20.45;;;14.77;;
80705;SDS011;70229;48.010;7.852;2024-03-06T05:44:29;8.30;;;4.63;;
80705;SDS011;70229;48.010;7.852;2024-03-06T05:46:55;6.55;;;3.50;;
80705;SDS011;70229;48.010;7.852;2024-03-06T05:49:22;8.45;;;5.28;;
80705;SDS011;70229;48.010;7.852;2024-03-06T05:51:47;5.00;;;3.00;;
80705;SDS011;70229;48.010;7.852;2024-03-06T05:54:13;5.65;;;3.05;;
80705;SDS011;70229;48.010;7.852;2024-03-06T05:56:39;4.78;;;2.13;;
80705;SDS011;70229;48.010;7.852;2024-03-06T05:59:04;5.95;;;3.17;;
80705;SDS011;70229;48.010;7.852;2024-03-06T06:01:33;4.93;;;2.17;;
80705;SDS011;70229;48.010;7.852;2024-03-06T06:04:01;4.30;;;2.03;;
80705;SDS011;70229;48.010;7.852;2024-03-06T06:06:27;4.57;;;2.15;;
80705;SDS011;70229;48.010;7.852;2024-03-06T06:08:53;5.13;;;2.90;;
80705;SDS011;70229;48.010;7.852;2024-03-06T06:11:18;4.95;;;2.50;;
80705;SDS011;70229;48.010;7.852;2024-03-06T06:13:44;4.25;;;2.15;;
80705;SDS011;70229;48.010;7.852;2024-03-06T06:16:09;3.40;;;1.38;;
80705;SDS011;70229;48.010;7.852;2024-03-06T06:18:35;6.50;;;1.73;;
80705;SDS011;70229;48.010;7.852;2024-03-06T06:21:01;2.97;;;1.77;;
80705;SDS011;70229;48.010;7.852;2024-03-06T06:23:26;3.58;;;1.58;;
80705;SDS011;70229;48.010;7.852;2024-03-06T06:25:52;2.65;;;1.25;;
80705;SDS011;70229;48.010;7.852;2024-03-06T06:28:17;2.95;;;1.75;;
80705;SDS011;70229;48.010;7.852;2024-03-06T06:30:43;4.38;;;2.10;;
80705;SDS011;70229;48.010;7.852;2024-03-06T06:33:09;3.83;;;1.75;;
80705;SDS011;70229;48.010;7.852;2024-03-06T06:38:36;3.05;;;1.38;;
80705;SDS011;70229;48.010;7.852;2024-03-06T06:41:04;5.65;;;1.75;;
80705;SDS011;70229;48.010;7.852;2024-03-06T06:43:35;3.10;;;1.75;;
80705;SDS011;70229;48.010;7.852;2024-03-06T06:46:08;3.28;;;1.40;;
80705;SDS011;70229;48.010;7.852;2024-03-06T06:48:40;5.60;;;1.33;;
80705;SDS011;70229;48.010;7.852;2024-03-06T06:53:58;3.75;;;1.50;;
80705;SDS011;70229;48.010;7.852;2024-03-06T07:00:12;3.20;;;1.77;;
80705;SDS011;70229;48.010;7.852;2024-03-06T07:06:34;2.47;;;1.27;;
80705;SDS011;70229;48.010;7.852;2024-03-06T07:09:12;3.00;;;1.30;;
80705;SDS011;70229;48.010;7.852;2024-03-06T07:12:00;3.33;;;1.45;;
80705;SDS011;70229;48.010;7.852;2024-03-06T07:14:26;3.03;;;1.10;;
80705;SDS011;70229;48.010;7.852;2024-03-06T07:16:57;4.80;;;1.33;;
80705;SDS011;70229;48.010;7.852;2024-03-06T07:19:35;3.03;;;1.30;;
80705;SDS011;70229;48.010;7.852;2024-03-06T07:22:09;1.90;;;1.10;;
80705;SDS011;70229;48.010;7.852;2024-03-06T07:25:26;3.13;;;1.38;;
80705;SDS011;70229;48.010;7.852;2024-03-06T07:28:24;5.35;;;0.98;;
80705;SDS011;70229;48.010;7.852;2024-03-06T07:34:13;3.53;;;0.90;;
80705;SDS011;70229;48.010;7.852;2024-03-06T07:37:00;2.63;;;1.25;;
80705;SDS011;70229;48.010;7.852;2024-03-06T07:39:32;2.47;;;1.15;;
80705;SDS011;70229;48.010;7.852;2024-03-06T07:42:07;2.33;;;1.20;;
80705;SDS011;70229;48.010;7.852;2024-03-06T07:45:34;2.38;;;1.10;;
80705;SDS011;70229;48.010;7.852;2024-03-06T07:48:15;2.55;;;1.05;;
80705;SDS011;70229;48.010;7.852;2024-03-06T07:54:24;2.47;;;1.40;;
80705;SDS011;70229;48.010;7.852;2024-03-06T07:57:25;1.98;;;1.10;;
80705;SDS011;70229;48.010;7.852;2024-03-06T08:00:23;1.92;;;0.75;;
80705;SDS011;70229;48.010;7.852;2024-03-06T08:02:55;1.88;;;0.88;;
80705;SDS011;70229;48.010;7.852;2024-03-06T08:05:26;1.90;;;1.00;;
80705;SDS011;70229;48.010;7.852;2024-03-06T08:10:30;1.77;;;0.77;;
80705;SDS011;70229;48.010;7.852;2024-03-06T08:16:01;1.35;;;0.70;;
80705;SDS011;70229;48.010;7.852;2024-03-06T08:19:19;1.90;;;1.00;;
80705;SDS011;70229;48.010;7.852;2024-03-06T08:22:14;1.45;;;0.65;;
80705;SDS011;70229;48.010;7.852;2024-03-06T08:25:14;1.88;;;0.90;;
80705;SDS011;70229;48.010;7.852;2024-03-06T08:27:48;3.15;;;1.23;;
80705;SDS011;70229;48.010;7.852;2024-03-06T08:30:53;2.38;;;1.00;;
80705;SDS011;70229;48.010;7.852;2024-03-06T08:33:58;1.70;;;0.93;;
80705;SDS011;70229;48.010;7.852;2024-03-06T08:36:32;3.13;;;0.98;;
80705;SDS011;70229;48.010;7.852;2024-03-06T08:39:03;2.33;;;1.02;;
80705;SDS011;70229;48.010;7.852;2024-03-06T08:42:10;1.52;;;0.80;;
80705;SDS011;70229;48.010;7.852;2024-03-06T08:48:53;2.03;;;0.90;;
80705;SDS011;70229;48.010;7.852;2024-03-06T08:51:24;3.05;;;0.85;;
80705;SDS011;70229;48.010;7.852;2024-03-06T08:53:58;1.70;;;0.80;;
80705;SDS011;70229;48.010;7.852;2024-03-06T08:57:21;2.13;;;1.05;;
80705;SDS011;70229;48.010;7.852;2024-03-06T08:59:57;1.67;;;0.93;;
80705;SDS011;70229;48.010;7.852;2024-03-06T09:02:39;2.55;;;1.00;;
80705;SDS011;70229;48.010;7.852;2024-03-06T09:05:16;2.42;;;0.80;;
80705;SDS011;70229;48.010;7.852;2024-03-06T09:14:42;2.35;;;0.68;;
80705;SDS011;70229;48.010;7.852;2024-03-06T09:17:24;2.30;;;1.10;;
80705;SDS011;70229;48.010;7.852;2024-03-06T09:20:36;2.00;;;0.88;;
80705;SDS011;70229;48.010;7.852;2024-03-06T09:23:23;2.53;;;1.30;;
80705;SDS011;70229;48.010;7.852;2024-03-06T09:29:55;4.10;;;1.92;;
80705;SDS011;70229;48.010;7.852;2024-03-06T09:32:55;3.05;;;1.23;;
80705;SDS011;70229;48.010;7.852;2024-03-06T09:35:52;4.47;;;1.70;;
80705;SDS011;70229;48.010;7.852;2024-03-06T09:38:27;3.45;;;1.65;;
80705;SDS011;70229;48.010;7.852;2024-03-06T09:41:28;3.90;;;1.70;;
80705;SDS011;70229;48.010;7.852;2024-03-06T09:58:26;3.35;;;1.50;;
80705;SDS011;70229;48.010;7.852;2024-03-06T10:07:55;3.83;;;1.92;;
80705;SDS011;70229;48.010;7.852;2024-03-06T10:10:42;2.88;;;1.33;;
80705;SDS011;70229;48.010;7.852;2024-03-06T10:26:57;3.90;;;1.13;;
80705;SDS011;70229;48.010;7.852;2024-03-06T10:42:38;1.75;;;0.75;;
80705;SDS011;70229;48.010;7.852;2024-03-06T10:59:47;1.67;;;0.55;;
80705;SDS011;70229;48.010;7.852;2024-03-06T11:36:24;4.30;;;1.13;;
80705;SDS011;70229;48.010;7.852;2024-03-06T11:46:19;1.75;;;0.80;;
80705;SDS011;70229;48.010;7.852;2024-03-06T11:49:41;7.25;;;1.50;;
80705;SDS011;70229;48.010;7.852;2024-03-06T11:54:48;1.67;;;0.75;;
80705;SDS011;70229;48.010;7.852;2024-03-06T11:57:16;2.08;;;0.82;;
80705;SDS011;70229;48.010;7.852;2024-03-06T12:07:21;2.13;;;0.47;;
80705;SDS011;70229;48.010;7.852;2024-03-06T12:14:19;2.70;;;0.80;;
80705;SDS011;70229;48.010;7.852;2024-03-06T12:17:12;1.25;;;0.52;;
80705;SDS011;70229;48.010;7.852;2024-03-06T12:41:03;3.35;;;1.10;;
80705;SDS011;70229;48.010;7.852;2024-03-06T19:16:15;12.60;;;7.00;;
80705;SDS011;70229;48.010;7.852;2024-03-06T19:18:41;9.70;;;6.63;;
80705;SDS011;70229;48.010;7.852;2024-03-06T19:21:06;11.57;;;5.32;;
80705;SDS011;70229;48.010;7.852;2024-03-06T19:23:33;10.38;;;5.93;;
80705;SDS011;70229;48.010;7.852;2024-03-06T19:25:59;11.20;;;6.07;;
80705;SDS011;70229;48.010;7.852;2024-03-06T19:28:24;8.27;;;4.95;;
80705;SDS011;70229;48.010;7.852;2024-03-06T19:30:50;9.48;;;4.45;;
80705;SDS011;70229;48.010;7.852;2024-03-06T19:33:16;5.50;;;3.72;;
80705;SDS011;70229;48.010;7.852;2024-03-06T19:35:41;5.43;;;3.92;;
80705;SDS011;70229;48.010;7.852;2024-03-06T19:38:07;7.18;;;4.90;;
80705;SDS011;70229;48.010;7.852;2024-03-06T19:40:38;6.40;;;5.00;;
80705;SDS011;70229;48.010;7.852;2024-03-06T19:43:04;10.38;;;4.28;;
80705;SDS011;70229;48.010;7.852;2024-03-06T19:45:30;8.75;;;6.40;;
80705;SDS011;70229;48.010;7.852;2024-03-06T19:47:55;14.00;;;10.32;;
80705;SDS011;70229;48.010;7.852;2024-03-06T19:50:21;9.15;;;7.10;;
80705;SDS011;70229;48.010;7.852;2024-03-06T19:52:47;7.95;;;5.63;;
80705;SDS011;70229;48.010;7.852;2024-03-06T19:55:14;6.75;;;5.10;;
80705;SDS011;70229;48.010;7.852;2024-03-06T19:57:41;7.07;;;4.55;;
80705;SDS011;70229;48.010;7.852;2024-03-06T20:00:07;7.03;;;4.93;;
80705;SDS011;70229;48.010;7.852;2024-03-06T20:02:36;7.40;;;4.75;;
80705;SDS011;70229;48.010;7.852;2024-03-06T20:05:02;7.55;;;5.32;;
80705;SDS011;70229;48.010;7.852;2024-03-06T20:07:30;8.55;;;5.68;;
80705;SDS011;70229;48.010;7.852;2024-03-06T20:09:56;7.07;;;4.30;;
80705;SDS011;70229;48.010;7.852;2024-03-06T20:12:22;7.13;;;5.03;;
80705;SDS011;70229;48.010;7.852;2024-03-06T20:14:48;6.43;;;4.93;;
80705;SDS011;70229;48.010;7.852;2024-03-06T20:17:14;7.18;;;4.70;;
80705;SDS011;70229;48.010;7.852;2024-03-06T20:19:41;6.60;;;4.22;;
80705;SDS011;70229;48.010;7.852;2024-03-06T20:22:10;7.97;;;5.18;;
80705;SDS011;70229;48.010;7.852;2024-03-06T20:24:36;7.45;;;5.47;;
80705;SDS011;70229;48.010;7.852;2024-03-06T20:27:02;9.75;;;5.43;;
80705;SDS011;70229;48.010;7.852;2024-03-06T20:29:29;7.88;;;4.68;;
80705;SDS011;70229;48.010;7.852;2024-03-06T20:31:54;9.00;;;6.07;;
80705;SDS011;70229;48.010;7.852;2024-03-06T20:34:20;6.35;;;4.45;;
80705;SDS011;70229;48.010;7.852;2024-03-06T20:36:47;7.43;;;5.07;;
80705;SDS011;70229;48.010;7.852;2024-03-06T20:39:13;7.07;;;5.15;;
80705;SDS011;70229;48.010;7.852;2024-03-06T20:41:41;6.22;;;4.28;;
80705;SDS011;70229;48.010;7.852;2024-03-06T20:44:08;7.28;;;4.93;;
80705;SDS011;70229;48.010;7.852;2024-03-06T20:46:33;7.93;;;5.00;;
80705;SDS011;70229;48.010;7.852;2024-03-06T20:48:59;6.22;;;4.65;;
80705;SDS011;70229;48.010;7.852;2024-03-06T20:51:26;8.77;;;4.28;;
80705;SDS011;70229;48.010;7.852;2024-03-06T20:53:51;6.15;;;4.90;;
80705;SDS011;70229;48.010;7.852;2024-03-06T20:56:17;6.57;;;4.47;;
80705;SDS011;70229;48.010;7.852;2024-03-06T20:58:42;5.50;;;3.83;;
80705;SDS011;70229;48.010;7.852;2024-03-06T21:01:08;5.40;;;3.67;;
80705;SDS011;70229;48.010;7.852;2024-03-06T21:03:34;7.22;;;3.95;;
80705;SDS011;70229;48.010;7.852;2024-03-06T21:06:02;4.88;;;3.35;;
80705;SDS011;70229;48.010;7.852;2024-03-06T21:08:29;4.95;;;3.15;;
80705;SDS011;70229;48.010;7.852;2024-03-06T21:10:54;4.20;;;3.00;;
80705;SDS011;70229;48.010;7.852;2024-03-06T21:13:20;6.00;;;4.50;;
80705;SDS011;70229;48.010;7.852;2024-03-06T21:15:46;6.38;;;3.63;;
80705;SDS011;70229;48.010;7.852;2024-03-06T21:18:11;4.75;;;3.00;;
80705;SDS011;70229;48.010;7.852;2024-03-06T21:20:37;7.65;;;3.30;;
80705;SDS011;70229;48.010;7.852;2024-03-06T21:23:03;6.22;;;3.60;;
80705;SDS011;70229;48.010;7.852;2024-03-06T21:25:28;5.13;;;3.15;;
80705;SDS011;70229;48.010;7.852;2024-03-06T21:27:54;4.40;;;2.88;;
80705;SDS011;70229;48.010;7.852;2024-03-06T21:30:20;6.93;;;4.25;;
80705;SDS011;70229;48.010;7.852;2024-03-06T21:32:45;9.63;;;3.05;;
80705;SDS011;70229;48.010;7.852;2024-03-06T21:35:11;5.47;;;3.47;;
80705;SDS011;70229;48.010;7.852;2024-03-06T21:37:37;4.80;;;3.33;;
80705;SDS011;70229;48.010;7.852;2024-03-06T21:40:03;4.47;;;3.10;;
80705;SDS011;70229;48.010;7.852;2024-03-06T21:42:30;5.97;;;3.65;;
80705;SDS011;70229;48.010;7.852;2024-03-06T21:44:55;6.57;;;3.35;;
80705;SDS011;70229;48.010;7.852;2024-03-06T21:47:22;5.53;;;3.70;;
80705;SDS011;70229;48.010;7.852;2024-03-06T21:49:48;5.72;;;3.45;;
80705;SDS011;70229;48.010;7.852;2024-03-06T21:52:14;5.82;;;3.70;;
80705;SDS011;70229;48.010;7.852;2024-03-06T21:54:43;6.72;;;3.90;;
80705;SDS011;70229;48.010;7.852;2024-03-06T21:57:09;5.50;;;3.22;;
80705;SDS011;70229;48.010;7.852;2024-03-06T21:59:40;5.93;;;3.97;;
80705;SDS011;70229;48.010;7.852;2024-03-06T22:02:06;6.20;;;3.63;;
80705;SDS011;70229;48.010;7.852;2024-03-06T22:04:32;7.38;;;3.53;;
80705;SDS011;70229;48.010;7.852;2024-03-06T22:06:58;6.18;;;3.50;;
80705;SDS011;70229;48.010;7.852;2024-03-06T22:09:24;5.15;;;3.03;;
80705;SDS011;70229;48.010;7.852;2024-03-06T22:11:50;4.55;;;3.22;;
80705;SDS011;70229;48.010;7.852;2024-03-06T22:14:15;5.47;;;3.38;;
80705;SDS011;70229;48.010;7.852;2024-03-06T22:16:41;4.63;;;2.63;;
80705;SDS011;70229;48.010;7.852;2024-03-06T22:19:09;4.63;;;3.13;;
80705;SDS011;70229;48.010;7.852;2024-03-06T22:21:34;4.05;;;2.58;;
80705;SDS011;70229;48.010;7.852;2024-03-06T22:24:00;4.60;;;2.92;;
80705;SDS011;70229;48.010;7.852;2024-03-06T22:26:26;5.35;;;3.25;;
80705;SDS011;70229;48.010;7.852;2024-03-06T22:28:53;5.18;;;2.92;;
80705;SDS011;70229;48.010;7.852;2024-03-06T22:31:19;3.70;;;2.47;;
80705;SDS011;70229;48.010;7.852;2024-03-06T22:33:49;4.13;;;2.58;;
80705;SDS011;70229;48.010;7.852;2024-03-06T22:36:17;5.57;;;2.83;;
80705;SDS011;70229;48.010;7.852;2024-03-06T22:38:46;5.20;;;3.10;;
80705;SDS011;70229;48.010;7.852;2024-03-06T22:41:19;8.45;;;7.13;;
80705;SDS011;70229;48.010;7.852;2024-03-06T22:43:45;23.42;;;15.73;;
80705;SDS011;70229;48.010;7.852;2024-03-06T22:46:11;16.40;;;10.77;;
80705;SDS011;70229;48.010;7.852;2024-03-06T22:48:37;16.92;;;11.48;;
80705;SDS011;70229;48.010;7.852;2024-03-06T22:51:03;34.80;;;22.25;;
80705;SDS011;70229;48.010;7.852;2024-03-06T22:53:30;11.65;;;8.57;;
80705;SDS011;70229;48.010;7.852;2024-03-06T22:55:56;42.75;;;25.30;;
80705;SDS011;70229;48.010;7.852;2024-03-06T22:58:21;69.78;;;46.60;;
80705;SDS011;70229;48.010;7.852;2024-03-06T23:00:47;24.25;;;18.30;;
80705;SDS011;70229;48.010;7.852;2024-03-06T23:03:13;42.28;;;30.15;;
80705;SDS011;70229;48.010;7.852;2024-03-06T23:05:39;13.80;;;8.88;;
80705;SDS011;70229;48.010;7.852;2024-03-06T23:08:05;13.52;;;9.68;;
80705;SDS011;70229;48.010;7.852;2024-03-06T23:10:32;16.83;;;11.80;;
80705;SDS011;70229;48.010;7.852;2024-03-06T23:12:58;11.38;;;8.00;;
80705;SDS011;70229;48.010;7.852;2024-03-06T23:15:23;14.93;;;10.98;;
80705;SDS011;70229;48.010;7.852;2024-03-06T23:17:49;9.10;;;5.63;;
80705;SDS011;70229;48.010;7.852;2024-03-06T23:20:16;16.02;;;11.25;;
80705;SDS011;70229;48.010;7.852;2024-03-06T23:22:43;10.70;;;7.28;;
80705;SDS011;70229;48.010;7.852;2024-03-06T23:25:10;6.53;;;3.95;;
80705;SDS011;70229;48.010;7.852;2024-03-06T23:27:37;5.20;;;2.97;;
80705;SDS011;70229;48.010;7.852;2024-03-06T23:30:06;7.03;;;3.25;;
80705;SDS011;70229;48.010;7.852;2024-03-06T23:32:36;7.95;;;3.90;;
80705;SDS011;70229;48.010;7.852;2024-03-06T23:35:05;7.15;;;4.97;;
80705;SDS011;70229;48.010;7.852;2024-03-06T23:37:32;12.02;;;7.70;;
80705;SDS011;70229;48.010;7.852;2024-03-06T23:40:05;9.02;;;5.75;;
80705;SDS011;70229;48.010;7.852;2024-03-06T23:42:38;12.52;;;9.00;;
80705;SDS011;70229;48.010;7.852;2024-03-06T23:45:05;27.00;;;20.38;;
80705;SDS011;70229;48.010;7.852;2024-03-06T23:47:33;11.00;;;7.65;;
80705;SDS011;70229;48.010;7.852;2024-03-06T23:49:59;13.40;;;9.30;;
80705;SDS011;70229;48.010;7.852;2024-03-06T23:52:24;11.70;;;8.63;;
80705;SDS011;70229;48.010;7.852;2024-03-06T23:54:50;9.13;;;5.80;;
80705;SDS011;70229;48.010;7.852;2024-03-06T23:57:16;7.60;;;5.00;;
80705;SDS011;70229;48.010;7.852;2024-03-06T23:59:42;6.82;;;4.68;;
